»·PEaware :: N7357K KPDX-KPDT

N7357K :: KPDX-KPDT

FLIGHT INFORMATION

Flight Status: Arrived
Operator: Privately registered:
United States
More flights under this callsign
Pilot: Steve F. (18480)
Aircraft: BEECH AIRCRAFT BARON
(BE58)
More flights by this aircraft type
Origin: KPDX Portland Intl
United States
Destination: KPDT Eastern Oreg Regl At Pendleto
United States
More flights between these airports :: More routes between these airports
Route: +PTLD1 BTG V112 LTJ V112 OGPAY PDT
File this flight plan on PilotEdge
Remarks:
Altitude:
(Current/Filed)
7,000ft
Speed:
(Current/Filed)
180kts
Departed: 28-Jul-18 09:16 AM
Arrived: 28-Jul-18 10:13 AM
Distance/Time
Traveled:
158nm/0:57
Distance/Time
To Go:
Arrived

Flight Plot

Page will automatically refresh every two minutes.

Flight plan parsing failed; only flown route is shown


Map Options




Map Legend


Flown Route
Filed Route
Departure Airport
Arrival Airport
Navaid (VOR, NDB)
Fix

Horizontal Profiles

Position Reports

Time Latitude Longitude Heading Altitude Ground
Speed
28-Jul-18 09:07 45.587435 -122.583524 208 17ft 0kts
28-Jul-18 09:08 45.587435 -122.583524 208 17ft 0kts
28-Jul-18 09:09 45.587435 -122.583524 208 17ft 0kts
28-Jul-18 09:10 45.587435 -122.583524 208 17ft 0kts
28-Jul-18 09:11 45.587435 -122.583524 208 17ft 0kts
28-Jul-18 09:12 45.587780 -122.583410 62 17ft 12kts
28-Jul-18 09:13 45.586262 -122.576975 118 17ft 20kts
28-Jul-18 09:14 45.583350 -122.569488 118 17ft 22kts
28-Jul-18 09:15 45.582768 -122.567425 71 17ft 0kts
28-Jul-18 09:16 45.582768 -122.567425 71 17ft 0kts
28-Jul-18 09:17 45.584097 -122.568165 298 17ft 44kts
28-Jul-18 09:18 45.599790 -122.607250 297 1018ft 129kts
28-Jul-18 09:19 45.617205 -122.651433 296 2643ft 129kts
28-Jul-18 09:20 45.638964 -122.691743 358 3951ft 135kts
28-Jul-18 09:21 45.672679 -122.669740 30 5269ft 134kts
28-Jul-18 09:22 45.704078 -122.641188 31 6503ft 134kts
28-Jul-18 09:23 45.738389 -122.609787 31 6954ft 170kts
28-Jul-18 09:24 45.758022 -122.552440 95 6948ft 186kts
28-Jul-18 09:25 45.746507 -122.480148 93 6967ft 187kts
28-Jul-18 09:26 45.744616 -122.405822 90 6987ft 187kts
28-Jul-18 09:27 45.743249 -122.331696 91 6987ft 187kts
28-Jul-18 09:28 45.741826 -122.256966 91 6987ft 187kts
28-Jul-18 09:29 45.740358 -122.182503 91 6987ft 187kts
28-Jul-18 09:30 45.738840 -122.107862 91 6987ft 187kts
28-Jul-18 09:31 45.737273 -122.033210 91 6987ft 187kts
28-Jul-18 09:32 45.735658 -121.958645 91 6987ft 187kts
28-Jul-18 09:33 45.733993 -121.883863 91 6975ft 188kts
28-Jul-18 09:34 45.732263 -121.808416 91 6941ft 191kts
28-Jul-18 09:35 45.730467 -121.732178 91 6906ft 193kts
28-Jul-18 09:36 45.728614 -121.655716 91 6970ft 193kts
28-Jul-18 09:37 45.726679 -121.578498 91 6970ft 194kts
28-Jul-18 09:38 45.724690 -121.500942 91 6970ft 195kts
28-Jul-18 09:39 45.722647 -121.423325 91 6970ft 195kts
28-Jul-18 09:40 45.720555 -121.345833 92 6969ft 195kts
28-Jul-18 09:41 45.718419 -121.268580 92 6968ft 194kts
28-Jul-18 09:42 45.716218 -121.190962 92 6968ft 194kts
28-Jul-18 09:43 45.713972 -121.113681 92 6969ft 195kts
28-Jul-18 09:44 45.704914 -121.037185 101 6969ft 195kts
28-Jul-18 09:45 45.694443 -120.960902 101 6969ft 195kts
28-Jul-18 09:46 45.683929 -120.884627 101 6969ft 195kts
28-Jul-18 09:47 45.673338 -120.808211 101 6969ft 195kts
28-Jul-18 09:48 45.662710 -120.731921 101 6969ft 195kts
28-Jul-18 09:49 45.652130 -120.656374 101 6997ft 197kts
28-Jul-18 09:50 45.641346 -120.579746 101 6979ft 196kts
28-Jul-18 09:51 45.630553 -120.503448 101 6979ft 196kts
28-Jul-18 09:52 45.619691 -120.427044 101 6980ft 196kts
28-Jul-18 09:53 45.608797 -120.350823 101 6980ft 195kts
28-Jul-18 09:54 45.597896 -120.274929 102 6977ft 195kts
28-Jul-18 09:55 45.586927 -120.198905 102 6978ft 195kts
28-Jul-18 09:56 45.575943 -120.123170 102 6978ft 195kts
28-Jul-18 09:57 45.564909 -120.047486 102 6978ft 194kts
28-Jul-18 09:58 45.554086 -119.973615 102 6978ft 193kts
28-Jul-18 09:59 45.543039 -119.898587 102 6978ft 193kts
28-Jul-18 10:00 45.531946 -119.823592 102 6978ft 193kts
28-Jul-18 10:01 45.532214 -119.748960 72 6979ft 193kts
28-Jul-18 10:02 45.547649 -119.675397 72 6978ft 193kts
28-Jul-18 10:03 45.562951 -119.601917 73 6948ft 194kts
28-Jul-18 10:04 45.578862 -119.525061 73 6428ft 206kts
28-Jul-18 10:05 45.595140 -119.446234 72 5924ft 208kts
28-Jul-18 10:06 45.610393 -119.366402 76 5435ft 208kts
28-Jul-18 10:07 45.623477 -119.286320 76 4957ft 208kts
28-Jul-18 10:08 45.636565 -119.205831 76 4491ft 208kts
28-Jul-18 10:09 45.649485 -119.125962 77 4042ft 207kts
28-Jul-18 10:10 45.662381 -119.045859 77 3603ft 206kts
28-Jul-18 10:11 45.674260 -118.968841 77 3367ft 172kts
28-Jul-18 10:12 45.688143 -118.917287 65 2771ft 133kts
28-Jul-18 10:13 45.695484 -118.869200 90 1866ft 114kts
28-Jul-18 10:14 45.695076 -118.837148 177 1476ft 17kts

Navigation Log

Ident Type
Flight plan parsing failed, navigation log unavailable